Time;durP1;ratioP1;P1;durP2;ratioP2;P2;SDS_P1;SDS_P2;PMS_P1;PMS_P2;Temp;Humidity;BMP_temperature;BMP_pressure;BME280_temperature;BME280_humidity;BME280_pressure;Samples;Min_cycle;Max_cycle;Signal;HPM_P1;HPM_P2
2021/03/26 00:00:25;;;;;;;;;;;;;;;3.56;64.93;100752.33;1740526;82;20283;-54
2021/03/26 00:03:34;;;;;;;;;;;;;;;3.49;65.03;100756.52;1739924;82;20244;-54
2021/03/26 00:06:42;;;;;;;;;;;;;;;3.43;65.12;100748.39;1739793;82;20255;-54
2021/03/26 00:09:45;;;;;;;;;;;;;;;3.38;65.28;100747.89;1740027;82;20580;-54
2021/03/26 00:12:49;;;;;;;;;;;;;;;3.37;65.31;100754.30;1739819;82;20248;-54
2021/03/26 00:15:53;;;;;;;;;;;;;;;3.38;65.47;100748.40;1740630;82;20220;-55
2021/03/26 00:19:00;;;;;;;;;;;;;;;3.45;65.47;100749.61;1739833;82;20255;-55
2021/03/26 00:22:04;;;;;;;;;;;;;;;3.48;65.35;100737.19;1739980;82;20212;-55
2021/03/26 00:25:07;;;;;;;;;;;;;;;3.51;65.34;100739.17;1740139;82;20239;-55
2021/03/26 00:28:13;;;;;;;;;;;;;;;3.55;65.22;100737.92;1740264;82;20631;-54
2021/03/26 00:31:18;;;;;;;;;;;;;;;3.57;65.12;100733.26;1739884;80;20572;-55
2021/03/26 00:34:22;;;;;;;;;;;;;;;3.57;65.06;100731.06;1745398;82;20247;-54
2021/03/26 00:37:25;;;;;;;;;;;;;;;3.55;64.91;100739.28;1745289;81;20220;-54
2021/03/26 00:40:30;;;;;;;;;;;;;;;3.49;64.81;100753.30;1745558;82;20199;-55
2021/03/26 00:43:34;;;;;;;;;;;;;;;3.42;64.91;100765.62;1745505;82;20195;-54
2021/03/26 00:46:40;;;;;;;;;;;;;;;3.39;65.00;100763.16;1745795;82;20215;-56
2021/03/26 00:49:46;;;;;;;;;;;;;;;3.37;65.00;100763.77;1745385;82;20219;-55
2021/03/26 00:52:50;;;;;;;;;;;;;;;3.33;64.87;100760.91;1745327;82;20535;-54
2021/03/26 00:55:56;;;;;;;;;;;;;;;3.30;64.99;100771.97;1745518;81;20228;-55
2021/03/26 00:59:01;;;;;;;;;;;;;;;3.29;64.93;100772.97;1745541;82;20954;-54
2021/03/26 01:02:05;;;;;;;;;;;;;;;3.27;64.80;100766.81;1745479;82;20243;-55
2021/03/26 01:05:16;;;;;;;;;;;;;;;3.26;64.83;100765.09;1745492;82;20203;-55
2021/03/26 01:08:19;;;;;;;;;;;;;;;3.22;64.78;100773.06;1745351;82;20487;-55
2021/03/26 01:11:29;;;;;;;;;;;;;;;3.16;64.86;100786.20;1745482;82;20251;-55
2021/03/26 01:14:34;;;;;;;;;;;;;;;3.14;64.99;100786.32;1745764;81;20211;-54
2021/03/26 01:17:41;;;;;;;;;;;;;;;3.10;64.91;100783.50;1745370;82;20211;-54
2021/03/26 01:20:46;;;;;;;;;;;;;;;3.06;65.01;100787.41;1745392;82;20207;-55
2021/03/26 01:23:50;;;;;;;;;;;;;;;3.08;64.99;100792.21;1745226;82;20255;-54
2021/03/26 01:26:57;;;;;;;;;;;;;;;3.08;64.93;100786.80;1745494;82;20231;-55
2021/03/26 01:30:04;;;;;;;;;;;;;;;3.09;64.82;100793.95;1745452;82;20219;-55
2021/03/26 01:33:07;;;;;;;;;;;;;;;3.13;64.71;100790.50;1744462;80;20279;-55
2021/03/26 01:36:13;;;;;;;;;;;;;;;3.13;64.44;100789.15;1745409;82;20278;-55
2021/03/26 01:39:17;;;;;;;;;;;;;;;3.09;64.22;100792.09;1745440;82;20226;-55
2021/03/26 01:42:35;;;;;;;;;;;;;;;3.02;64.21;100789.98;1745507;82;20251;-55
2021/03/26 01:45:38;;;;;;;;;;;;;;;2.93;64.15;100788.84;1746271;82;20214;-55
2021/03/26 01:48:53;;;;;;;;;;;;;;;2.83;64.29;100793.73;1745296;82;20212;-55
2021/03/26 01:51:57;;;;;;;;;;;;;;;2.82;64.50;100792.02;1745476;82;20247;-56
2021/03/26 01:55:01;;;;;;;;;;;;;;;2.84;64.51;100794.96;1745301;82;20214;-54
2021/03/26 01:58:05;;;;;;;;;;;;;;;2.83;64.42;100792.38;1745357;82;20239;-54
2021/03/26 02:01:17;;;;;;;;;;;;;;;2.82;64.37;100800.13;1745480;82;20277;-54
2021/03/26 02:04:30;;;;;;;;;;;;;;;2.83;64.33;100804.54;1745289;82;20203;-54
2021/03/26 02:07:55;;;;;;;;;;;;;;;2.85;64.29;100803.94;1745538;82;20202;-54
2021/03/26 02:11:02;;;;;;;;;;;;;;;2.89;64.21;100806.77;1745083;82;20238;-54
2021/03/26 02:14:09;;;;;;;;;;;;;;;2.92;64.15;100803.83;1744298;82;20238;-54
2021/03/26 02:17:13;;;;;;;;;;;;;;;2.94;64.03;100806.81;1744970;81;20275;-54
2021/03/26 02:20:35;;;;;;;;;;;;;;;2.96;63.93;100803.51;1745532;82;20212;-54
2021/03/26 02:23:42;;;;;;;;;;;;;;;2.96;63.78;100810.27;1745465;82;20210;-55
2021/03/26 02:26:49;;;;;;;;;;;;;;;2.95;63.76;100809.00;1745381;82;20218;-54
2021/03/26 02:29:52;;;;;;;;;;;;;;;2.92;63.74;100807.41;1745536;82;20575;-54
2021/03/26 02:33:02;;;;;;;;;;;;;;;2.91;63.83;100816.98;1746470;80;20503;-53
2021/03/26 02:36:26;;;;;;;;;;;;;;;2.86;63.93;100808.36;1742873;82;20328;-52
2021/03/26 02:39:35;;;;;;;;;;;;;;;2.78;64.02;100814.36;1747593;82;20275;-53
2021/03/26 02:42:41;;;;;;;;;;;;;;;2.70;64.28;100815.42;1747667;82;21037;-53
2021/03/26 02:45:50;;;;;;;;;;;;;;;2.69;64.51;100819.59;1747573;82;20251;-53
2021/03/26 02:49:13;;;;;;;;;;;;;;;2.68;64.55;100825.48;1747845;82;20211;-53
2021/03/26 02:52:29;;;;;;;;;;;;;;;2.62;64.64;100816.48;1749143;81;20302;-54
2021/03/26 02:55:55;;;;;;;;;;;;;;;2.57;64.74;100816.47;1747639;82;20627;-53
2021/03/26 02:59:10;;;;;;;;;;;;;;;2.50;64.92;100820.59;1748187;81;20212;-53
2021/03/26 03:02:16;;;;;;;;;;;;;;;2.42;65.19;100818.95;1747579;82;20635;-54
2021/03/26 03:05:43;;;;;;;;;;;;;;;2.44;65.45;100818.36;1747603;82;20275;-54
2021/03/26 03:08:48;;;;;;;;;;;;;;;2.45;65.41;100820.06;1747930;81;20311;-54
2021/03/26 03:11:55;;;;;;;;;;;;;;;2.47;65.53;100827.58;1747551;82;20350;-54
2021/03/26 03:15:20;;;;;;;;;;;;;;;2.45;65.45;100822.77;1747865;82;20279;-54
2021/03/26 03:18:42;;;;;;;;;;;;;;;2.42;65.46;100827.05;1747782;82;20319;-54
2021/03/26 03:22:04;;;;;;;;;;;;;;;2.40;65.62;100829.00;1747754;82;20290;-54
2021/03/26 03:25:10;;;;;;;;;;;;;;;2.43;65.63;100825.59;1747976;81;20275;-54
2021/03/26 03:28:41;;;;;;;;;;;;;;;2.42;65.64;100829.75;1747563;82;20275;-54
2021/03/26 03:31:58;;;;;;;;;;;;;;;2.40;65.57;100826.30;1738911;82;20278;-54
2021/03/26 03:35:07;;;;;;;;;;;;;;;2.37;65.38;100830.10;1744178;81;20531;-53
2021/03/26 03:38:31;;;;;;;;;;;;;;;2.33;65.38;100833.14;1739965;82;20279;-53
2021/03/26 03:41:52;;;;;;;;;;;;;;;2.23;65.41;100834.31;1739809;82;20555;-53
2021/03/26 03:45:17;;;;;;;;;;;;;;;2.24;65.63;100836.50;1739961;82;20205;-54
2021/03/26 03:48:32;;;;;;;;;;;;;;;2.29;65.58;100837.03;1739881;82;20312;-54
2021/03/26 03:52:00;;;;;;;;;;;;;;;2.38;65.54;100839.92;1739824;82;20275;-53
2021/03/26 03:55:20;;;;;;;;;;;;;;;2.43;65.36;100840.92;1740062;82;20295;-54
2021/03/26 03:58:28;;;;;;;;;;;;;;;2.45;65.26;100843.03;1740195;82;20312;-55
2021/03/26 04:01:55;;;;;;;;;;;;;;;2.52;65.26;100853.77;1740198;82;20215;-55
2021/03/26 04:05:02;;;;;;;;;;;;;;;2.58;65.06;100854.19;1739825;82;20227;-55
2021/03/26 04:08:17;;;;;;;;;;;;;;;2.62;64.93;100856.15;1740203;82;20276;-54
2021/03/26 04:11:46;;;;;;;;;;;;;;;2.64;64.74;100856.42;1739904;82;20314;-55
2021/03/26 04:15:03;;;;;;;;;;;;;;;2.70;64.64;100859.14;1738889;82;20223;-55
2021/03/26 04:18:14;;;;;;;;;;;;;;;2.78;64.46;100859.44;1739876;82;20192;-55
2021/03/26 04:21:27;;;;;;;;;;;;;;;2.73;64.18;100868.38;1738924;82;20188;-55
2021/03/26 04:24:46;;;;;;;;;;;;;;;2.70;64.00;100872.66;1739999;82;20247;-55
2021/03/26 04:28:06;;;;;;;;;;;;;;;2.62;63.89;100871.88;1738932;82;20306;-55
2021/03/26 04:31:14;;;;;;;;;;;;;;;2.60;64.20;100871.64;1740431;82;20219;-55
2021/03/26 04:34:22;;;;;;;;;;;;;;;2.63;64.11;100872.76;1739373;82;20298;-55
2021/03/26 04:37:41;;;;;;;;;;;;;;;2.67;64.11;100872.89;1702537;84;20320;-55
2021/03/26 04:40:48;;;;;;;;;;;;;;;2.73;63.86;100870.59;1702592;84;20297;-55
2021/03/26 04:43:57;;;;;;;;;;;;;;;2.76;63.59;100872.20;1702849;83;20280;-55
2021/03/26 04:47:21;;;;;;;;;;;;;;;2.77;63.64;100875.30;1702800;83;20299;-55
2021/03/26 04:50:52;;;;;;;;;;;;;;;2.88;63.82;100876.23;1703184;83;20213;-55
2021/03/26 04:54:02;;;;;;;;;;;;;;;3.03;63.61;100868.77;1700506;84;20344;-55
2021/03/26 04:57:19;;;;;;;;;;;;;;;3.18;63.34;100871.67;1702918;83;20284;-55
2021/03/26 05:00:30;;;;;;;;;;;;;;;3.31;63.02;100868.41;1701851;83;20307;-55
2021/03/26 05:03:43;;;;;;;;;;;;;;;3.40;62.71;100875.81;1702456;84;20313;-55
2021/03/26 05:06:53;;;;;;;;;;;;;;;3.47;62.33;100876.20;1702274;84;20228;-55
2021/03/26 05:09:57;;;;;;;;;;;;;;;3.51;62.02;100890.72;1702455;84;20609;-56
2021/03/26 05:13:05;;;;;;;;;;;;;;;3.54;61.85;100889.13;1688071;84;20228;-55
2021/03/26 05:16:20;;;;;;;;;;;;;;;3.52;61.63;100889.73;1702843;83;20652;-55
2021/03/26 05:20:00;;;;;;;;;;;;;;;3.54;61.62;100889.13;1702477;84;20256;-56
2021/03/26 05:23:12;;;;;;;;;;;;;;;3.57;61.40;100886.70;1703358;83;20619;-55
2021/03/26 05:26:34;;;;;;;;;;;;;;;3.65;61.28;100886.45;1702917;84;20248;-56
2021/03/26 05:29:47;;;;;;;;;;;;;;;3.77;61.07;100882.80;1702250;84;20283;-55
2021/03/26 05:32:55;;;;;;;;;;;;;;;3.87;60.80;100888.35;1705566;84;20220;-56
2021/03/26 05:36:08;;;;;;;;;;;;;;;3.92;60.20;100886.98;1709919;78;20544;-56
2021/03/26 05:39:31;;;;;;;;;;;;;;;3.99;60.28;100887.37;1744698;82;20280;-56
2021/03/26 05:42:58;;;;;;;;;;;;;;;4.14;60.07;100882.94;1722983;82;20224;-56
2021/03/26 05:46:37;;;;;;;;;;;;;;;4.24;59.75;100896.61;1668213;84;20208;-56
2021/03/26 05:50:28;;;;;;;;;;;;;;;4.21;59.23;100900.44;1704822;82;20223;-56
2021/03/26 05:53:57;;;;;;;;;;;;;;;4.25;59.33;100905.97;1673233;86;20301;-55
2021/03/26 05:57:13;;;;;;;;;;;;;;;4.37;59.30;100916.33;1704688;81;20259;-56
2021/03/26 06:00:43;;;;;;;;;;;;;;;4.50;59.23;100916.55;1704863;83;20211;-55
2021/03/26 06:04:43;;;;;;;;;;;;;;;4.58;58.88;100913.23;1715935;83;20286;-56
2021/03/26 06:08:13;;;;;;;;;;;;;;;4.75;59.03;100921.33;1679176;84;20218;-57
2021/03/26 06:12:06;;;;;;;;;;;;;;;4.88;58.47;100922.92;1693839;83;20215;-58
2021/03/26 06:15:36;;;;;;;;;;;;;;;4.93;57.77;100928.81;1696740;84;20231;-58
2021/03/26 06:19:18;;;;;;;;;;;;;;;5.00;57.42;100932.75;1654844;87;20224;-58
2021/03/26 06:22:46;;;;;;;;;;;;;;;5.10;57.52;100932.36;1643575;86;20265;-58
2021/03/26 06:26:06;;;;;;;;;;;;;;;5.23;57.13;100930.84;1703726;84;20230;-60
2021/03/26 06:29:42;;;;;;;;;;;;;;;5.37;56.97;100931.41;1708609;83;20222;-57
2021/03/26 06:33:23;;;;;;;;;;;;;;;5.49;56.82;100930.84;1709199;84;20208;-57
2021/03/26 06:36:40;;;;;;;;;;;;;;;5.54;56.14;100934.91;1741718;82;20590;-58
2021/03/26 06:39:51;;;;;;;;;;;;;;;5.55;55.72;100935.78;1685507;84;20228;-57
2021/03/26 06:43:12;;;;;;;;;;;;;;;5.55;55.58;100929.83;1687405;84;20578;-56
2021/03/26 06:46:34;;;;;;;;;;;;;;;5.63;55.70;100932.75;1688258;84;20317;-57
2021/03/26 06:49:58;;;;;;;;;;;;;;;5.69;55.19;100935.46;1688104;84;20293;-57
2021/03/26 06:53:22;;;;;;;;;;;;;;;5.69;55.05;100934.10;1687618;84;20217;-58
2021/03/26 06:56:46;;;;;;;;;;;;;;;5.71;55.25;100933.45;1686208;83;20317;-61
2021/03/26 07:00:20;;;;;;;;;;;;;;;5.80;55.25;100932.69;1701512;83;20218;-60
2021/03/26 07:03:36;;;;;;;;;;;;;;;5.97;55.13;100937.55;1687160;84;20255;-59
2021/03/26 07:06:53;;;;;;;;;;;;;;;6.15;54.90;100938.67;1686402;84;20242;-58
2021/03/26 07:10:08;;;;;;;;;;;;;;;6.27;54.42;100929.91;1692657;83;20294;-60
2021/03/26 07:13:35;;;;;;;;;;;;;;;6.35;54.33;100929.61;1697195;83;20249;-60
2021/03/26 07:16:56;;;;;;;;;;;;;;;6.48;53.30;100936.18;1709569;81;20539;-61
2021/03/26 07:20:27;;;;;;;;;;;;;;;6.50;52.75;100929.59;1722731;83;20218;-61
2021/03/26 07:23:52;;;;;;;;;;;;;;;6.55;52.66;100934.12;1729827;82;20582;-61
2021/03/26 07:27:16;;;;;;;;;;;;;;;6.66;51.46;100938.11;1729000;82;20242;-60
2021/03/26 07:30:31;;;;;;;;;;;;;;;6.70;50.44;100935.49;1728779;82;20559;-60
2021/03/26 07:33:47;;;;;;;;;;;;;;;6.73;49.68;100935.70;1722504;82;20242;-61
2021/03/26 07:37:10;;;;;;;;;;;;;;;6.79;48.88;100936.02;1686907;85;20604;-61
2021/03/26 07:40:27;;;;;;;;;;;;;;;6.85;48.51;100938.70;1660756;84;20637;-61
2021/03/26 07:44:02;;;;;;;;;;;;;;;6.92;47.31;100936.64;1711060;83;20567;-60
2021/03/26 07:47:29;;;;;;;;;;;;;;;6.98;47.66;100935.20;1711286;84;20239;-60
2021/03/26 07:50:57;;;;;;;;;;;;;;;7.13;46.63;100924.29;1694234;84;20574;-59
2021/03/26 07:54:21;;;;;;;;;;;;;;;7.19;45.83;100928.67;1683009;85;20254;-60
2021/03/26 07:57:28;;;;;;;;;;;;;;;7.28;44.92;100926.95;1682653;85;20225;-59
2021/03/26 08:00:47;;;;;;;;;;;;;;;7.36;44.06;100932.55;1649888;86;20238;-61
2021/03/26 08:04:10;;;;;;;;;;;;;;;7.47;43.34;100938.73;1618767;88;20251;-59
2021/03/26 08:07:31;;;;;;;;;;;;;;;7.56;40.90;100928.33;1655077;84;20482;-61
2021/03/26 08:10:47;;;;;;;;;;;;;;;7.64;39.91;100934.45;1670980;85;20230;-58
2021/03/26 08:14:08;;;;;;;;;;;;;;;7.72;38.88;100934.59;1671501;85;20217;-61
2021/03/26 08:17:17;;;;;;;;;;;;;;;7.78;38.02;100935.37;1671944;85;20242;-59
2021/03/26 08:20:33;;;;;;;;;;;;;;;7.77;37.36;100929.54;1641468;87;20209;-60
2021/03/26 08:23:41;;;;;;;;;;;;;;;7.78;37.64;100938.09;1643026;86;20248;-60
2021/03/26 08:27:02;;;;;;;;;;;;;;;7.82;36.80;100937.30;1669085;85;20566;-61
2021/03/26 08:30:15;;;;;;;;;;;;;;;7.88;35.44;100931.27;1671955;84;20222;-61
2021/03/26 08:33:30;;;;;;;;;;;;;;;7.96;35.65;100930.05;1671894;85;20214;-61
2021/03/26 08:37:02;;;;;;;;;;;;;;;8.05;36.19;100934.11;1645512;86;20218;-61
2021/03/26 08:40:06;;;;;;;;;;;;;;;8.10;33.65;100927.72;1665099;84;20243;-61
2021/03/26 08:43:09;;;;;;;;;;;;;;;8.12;33.65;100939.84;1677610;84;20585;-61
2021/03/26 08:46:27;;;;;;;;;;;;;;;8.20;33.71;100929.90;1701371;84;20209;-62
2021/03/26 08:49:40;;;;;;;;;;;;;;;8.30;32.96;100928.55;1702285;84;20256;-61
2021/03/26 08:52:57;;;;;;;;;;;;;;;8.36;32.80;100930.18;1739563;82;20638;-59
2021/03/26 08:56:39;;;;;;;;;;;;;;;8.40;32.31;100927.53;1738928;82;20243;-59
2021/03/26 08:59:54;;;;;;;;;;;;;;;8.50;32.34;100932.95;1739490;81;20263;-60
2021/03/26 09:03:03;;;;;;;;;;;;;;;8.61;31.67;100933.60;1739632;82;20204;-60
2021/03/26 09:06:19;;;;;;;;;;;;;;;8.66;32.79;100927.19;1739529;81;20574;-59
2021/03/26 09:09:46;;;;;;;;;;;;;;;8.79;32.49;100928.20;1750634;81;20579;-60
2021/03/26 09:12:57;;;;;;;;;;;;;;;8.87;31.52;100925.58;1720924;82;20230;-59
2021/03/26 09:16:16;;;;;;;;;;;;;;;8.97;30.84;100931.33;1729138;81;20580;-61
2021/03/26 09:19:24;;;;;;;;;;;;;;;8.97;31.00;100928.60;1750617;81;20641;-62
2021/03/26 09:22:51;;;;;;;;;;;;;;;9.03;31.46;100936.22;1744949;81;20245;-60
2021/03/26 09:26:05;;;;;;;;;;;;;;;9.09;32.54;100923.30;1699826;84;20212;-60
2021/03/26 09:29:13;;;;;;;;;;;;;;;9.12;33.78;100920.76;1680523;83;20218;-61
2021/03/26 09:32:29;;;;;;;;;;;;;;;9.20;34.33;100932.31;1708351;83;20255;-60
2021/03/26 09:35:39;;;;;;;;;;;;;;;9.29;34.60;100927.28;1708952;82;20270;-60
2021/03/26 09:38:48;;;;;;;;;;;;;;;9.38;35.10;100921.75;1706831;82;20232;-60
2021/03/26 09:41:58;;;;;;;;;;;;;;;9.46;35.35;100915.00;1735473;81;20428;-60
2021/03/26 09:45:07;;;;;;;;;;;;;;;9.56;36.09;100917.66;1739729;81;20340;-61
2021/03/26 09:48:22;;;;;;;;;;;;;;;9.62;36.22;100922.48;1736408;82;20608;-61
2021/03/26 09:51:34;;;;;;;;;;;;;;;9.70;36.18;100922.56;1753032;81;20214;-60
2021/03/26 09:54:44;;;;;;;;;;;;;;;9.80;36.26;100918.72;1750972;81;20232;-62
2021/03/26 09:58:10;;;;;;;;;;;;;;;9.92;36.54;100916.10;1753952;81;20283;-61
2021/03/26 10:01:22;;;;;;;;;;;;;;;10.00;36.62;100916.17;1739956;81;20556;-60
2021/03/26 10:04:34;;;;;;;;;;;;;;;10.08;37.05;100921.73;1756691;81;20220;-60
2021/03/26 10:07:45;;;;;;;;;;;;;;;10.12;37.19;100913.55;1751680;81;20221;-59
2021/03/26 10:10:50;;;;;;;;;;;;;;;10.21;37.45;100916.67;1749694;81;20525;-61
2021/03/26 10:14:09;;;;;;;;;;;;;;;10.30;37.75;100908.89;1737138;82;20242;-60
2021/03/26 10:17:40;;;;;;;;;;;;;;;10.37;38.08;100912.69;1756400;81;20215;-60
2021/03/26 10:20:52;;;;;;;;;;;;;;;10.46;37.79;100913.07;1752325;81;20558;-60
2021/03/26 10:24:11;;;;;;;;;;;;;;;10.61;38.03;100899.64;1749424;82;20213;-60
2021/03/26 10:27:27;;;;;;;;;;;;;;;10.68;38.42;100899.34;1748657;81;20217;-60
2021/03/26 10:30:43;;;;;;;;;;;;;;;10.86;39.15;100904.73;1747210;81;20726;-60
2021/03/26 10:34:00;;;;;;;;;;;;;;;10.99;38.31;100903.23;1677899;84;20226;-60
2021/03/26 10:37:26;;;;;;;;;;;;;;;11.05;39.07;100898.98;1751786;81;20569;-59
2021/03/26 10:40:43;;;;;;;;;;;;;;;11.10;38.39;100906.20;1754412;81;20335;-60
2021/03/26 10:43:58;;;;;;;;;;;;;;;11.19;39.16;100897.84;1690996;84;20277;-60
2021/03/26 10:47:22;;;;;;;;;;;;;;;11.41;39.16;100896.33;1745024;82;20215;-60
2021/03/26 10:50:49;;;;;;;;;;;;;;;11.60;39.08;100890.03;1741104;82;20253;-56
2021/03/26 10:54:00;;;;;;;;;;;;;;;11.80;38.94;100883.70;1737840;82;20328;-56
2021/03/26 10:57:27;;;;;;;;;;;;;;;12.00;38.70;100895.53;1728459;82;20220;-54
2021/03/26 11:00:36;;;;;;;;;;;;;;;12.11;38.42;100883.36;1737783;82;20287;-56
2021/03/26 11:03:50;;;;;;;;;;;;;;;12.25;37.99;100892.25;1740209;82;20277;-54
2021/03/26 11:06:57;;;;;;;;;;;;;;;12.36;37.93;100879.53;1741534;82;20277;-55
2021/03/26 11:10:06;;;;;;;;;;;;;;;12.52;37.73;100884.13;1744598;82;20204;-56
2021/03/26 11:13:43;;;;;;;;;;;;;;;12.60;37.42;100890.46;1745514;81;20247;-56
2021/03/26 11:16:51;;;;;;;;;;;;;;;12.65;36.72;100883.92;1716410;82;20582;-56
2021/03/26 11:20:17;;;;;;;;;;;;;;;12.75;36.63;100883.17;1744573;82;20224;-56
2021/03/26 11:23:30;;;;;;;;;;;;;;;12.87;36.50;100869.41;1745091;81;20593;-57
2021/03/26 11:26:45;;;;;;;;;;;;;;;13.07;36.04;100882.20;1714565;83;20245;-56
2021/03/26 11:29:54;;;;;;;;;;;;;;;13.18;36.13;100877.67;1715118;84;20238;-57
2021/03/26 11:33:21;;;;;;;;;;;;;;;13.37;34.99;100875.84;1715291;83;20217;-57
2021/03/26 11:36:58;;;;;;;;;;;;;;;13.35;34.64;100887.03;1719388;81;20214;-56
2021/03/26 11:40:26;;;;;;;;;;;;;;;13.28;34.70;100864.56;1736168;80;20267;-57
2021/03/26 11:43:37;;;;;;;;;;;;;;;13.37;34.73;100872.58;1752705;80;20207;-57
2021/03/26 11:46:46;;;;;;;;;;;;;;;13.40;34.33;100873.59;1770555;80;20214;-57
2021/03/26 11:49:53;;;;;;;;;;;;;;;13.44;34.56;100865.33;1766794;81;20243;-57
2021/03/26 11:53:24;;;;;;;;;;;;;;;13.54;34.76;100855.47;1769790;80;20558;-54
2021/03/26 11:56:31;;;;;;;;;;;;;;;13.72;34.80;100867.50;1755261;81;20223;-57
2021/03/26 12:00:05;;;;;;;;;;;;;;;13.90;34.61;100861.17;1770277;80;20325;-58
2021/03/26 12:03:24;;;;;;;;;;;;;;;13.93;34.92;100864.92;1781739;80;20207;-54
2021/03/26 12:06:46;;;;;;;;;;;;;;;13.94;34.99;100852.89;1783130;80;20214;-58
2021/03/26 12:10:12;;;;;;;;;;;;;;;13.92;35.39;100887.45;1783069;80;20211;-56
2021/03/26 12:13:28;;;;;;;;;;;;;;;13.94;34.88;100858.40;1771081;80;20510;-55
2021/03/26 12:16:37;;;;;;;;;;;;;;;13.92;34.54;100859.09;1755084;82;20275;-55
2021/03/26 12:19:44;;;;;;;;;;;;;;;13.92;34.61;100854.97;1754773;81;20271;-55
2021/03/26 12:22:51;;;;;;;;;;;;;;;14.03;34.81;100844.88;1749788;82;20203;-55
2021/03/26 12:26:07;;;;;;;;;;;;;;;14.16;34.93;100843.18;1750268;81;20599;-55
2021/03/26 12:29:19;;;;;;;;;;;;;;;14.32;34.28;100847.18;1750442;81;20638;-56
2021/03/26 12:32:35;;;;;;;;;;;;;;;14.35;34.39;100850.93;1747610;82;20569;-56
2021/03/26 12:35:52;;;;;;;;;;;;;;;14.37;34.62;100845.23;1724003;82;20211;-57
2021/03/26 12:39:14;;;;;;;;;;;;;;;14.43;34.76;100834.86;1727609;80;20209;-57
2021/03/26 12:42:26;;;;;;;;;;;;;;;14.48;34.69;100848.38;1777125;80;20595;-57
2021/03/26 12:45:37;;;;;;;;;;;;;;;14.39;34.76;100841.77;1731036;82;20226;-57
2021/03/26 12:48:48;;;;;;;;;;;;;;;14.38;35.07;100843.66;1731479;82;20369;-56
2021/03/26 12:51:55;;;;;;;;;;;;;;;14.44;35.49;100839.31;1702672;82;20229;-55
2021/03/26 12:55:34;;;;;;;;;;;;;;;14.52;35.40;100839.22;1671980;86;20238;-56
2021/03/26 12:59:16;;;;;;;;;;;;;;;14.46;34.94;100844.13;1671990;86;20210;-56
2021/03/26 13:02:36;;;;;;;;;;;;;;;14.47;34.96;100830.66;1698032;83;20224;-57
2021/03/26 13:05:43;;;;;;;;;;;;;;;14.56;35.34;100835.02;1700004;84;20225;-58
2021/03/26 13:08:51;;;;;;;;;;;;;;;14.63;35.36;100846.50;1709013;83;20211;-56
2021/03/26 13:12:04;;;;;;;;;;;;;;;14.62;34.43;100835.63;1707174;83;20259;-57
2021/03/26 13:15:30;;;;;;;;;;;;;;;14.47;34.96;100825.16;1706750;84;20213;-55
2021/03/26 13:18:34;;;;;;;;;;;;;;;14.51;35.29;100829.22;1707195;84;20204;-56
2021/03/26 13:22:16;;;;;;;;;;;;;;;14.54;34.56;100829.70;1663675;85;20652;-57
2021/03/26 13:25:35;;;;;;;;;;;;;;;14.41;34.90;100817.66;1711835;83;20223;-55
2021/03/26 13:28:44;;;;;;;;;;;;;;;14.36;35.05;100822.88;1713927;82;20242;-56
2021/03/26 13:31:50;;;;;;;;;;;;;;;14.36;35.06;100822.88;1713762;82;20527;-57
2021/03/26 13:34:58;;;;;;;;;;;;;;;14.35;35.77;100834.41;1715650;82;20255;-55
2021/03/26 13:38:22;;;;;;;;;;;;;;;14.36;35.87;100815.98;1710913;82;20231;-54
2021/03/26 13:41:36;;;;;;;;;;;;;;;14.48;36.20;100819.45;1710618;82;20706;-55
2021/03/26 13:44:47;;;;;;;;;;;;;;;14.57;35.32;100817.47;1684243;80;20223;-55
2021/03/26 13:48:18;;;;;;;;;;;;;;;14.49;35.57;100825.83;1646374;86;20260;-55
2021/03/26 13:51:26;;;;;;;;;;;;;;;14.55;35.48;100818.17;1707884;82;20206;-56
2021/03/26 13:54:38;;;;;;;;;;;;;;;14.51;35.43;100819.07;1668825;85;20217;-56
2021/03/26 13:57:44;;;;;;;;;;;;;;;14.48;35.29;100817.21;1667942;84;20294;-56
2021/03/26 14:00:51;;;;;;;;;;;;;;;14.49;35.32;100818.39;1703382;83;20574;-55
2021/03/26 14:03:59;;;;;;;;;;;;;;;14.52;35.27;100822.17;1695507;83;20223;-55
2021/03/26 14:07:10;;;;;;;;;;;;;;;14.43;35.84;100813.66;1744050;82;20266;-56
2021/03/26 14:10:27;;;;;;;;;;;;;;;14.41;36.10;100822.63;1742932;80;20248;-57
2021/03/26 14:13:37;;;;;;;;;;;;;;;14.39;36.12;100825.25;1747051;81;20268;-56
2021/03/26 14:17:11;;;;;;;;;;;;;;;14.38;36.57;100813.91;1741236;81;20253;-57
2021/03/26 14:20:19;;;;;;;;;;;;;;;14.43;36.38;100841.75;1744952;81;20248;-56
2021/03/26 14:23:29;;;;;;;;;;;;;;;14.43;35.73;100830.73;1717485;82;20278;-56
2021/03/26 14:26:54;;;;;;;;;;;;;;;14.42;35.58;100831.75;1717647;83;20190;-56
2021/03/26 14:30:02;;;;;;;;;;;;;;;14.42;35.99;100824.36;1717251;83;20218;-54
2021/03/26 14:33:18;;;;;;;;;;;;;;;14.41;36.12;100836.94;1730097;82;20213;-56
2021/03/26 14:36:35;;;;;;;;;;;;;;;14.40;35.99;100834.70;1742555;82;20236;-54
2021/03/26 14:39:41;;;;;;;;;;;;;;;14.23;36.32;100829.52;1745297;81;20424;-55
2021/03/26 14:42:48;;;;;;;;;;;;;;;14.24;36.48;100834.00;1753466;81;20310;-55
2021/03/26 14:45:53;;;;;;;;;;;;;;;14.21;36.29;100837.11;1737464;81;20240;-55
2021/03/26 14:49:06;;;;;;;;;;;;;;;14.06;36.56;100827.98;1762766;81;20281;-55
2021/03/26 14:52:32;;;;;;;;;;;;;;;13.97;37.10;100834.08;1764650;81;20275;-56
2021/03/26 14:55:51;;;;;;;;;;;;;;;13.92;37.71;100842.03;1730889;82;20266;-55
2021/03/26 14:58:58;;;;;;;;;;;;;;;13.65;38.50;100846.78;1736910;81;20203;-56
2021/03/26 15:02:06;;;;;;;;;;;;;;;13.38;39.40;100848.16;1722889;81;20221;-55
2021/03/26 15:05:07;;;;;;;;;;;;;;;13.23;40.13;100850.50;1745193;81;20223;-56
2021/03/26 15:08:13;;;;;;;;;;;;;;;13.19;40.94;100848.62;1728453;81;20204;-56
2021/03/26 15:11:20;;;;;;;;;;;;;;;13.22;41.46;100849.63;1746919;81;20199;-55
2021/03/26 15:14:34;;;;;;;;;;;;;;;13.07;42.13;100847.34;1750720;81;20239;-55
2021/03/26 15:17:42;;;;;;;;;;;;;;;13.04;42.67;100852.34;1745995;81;20216;-56
2021/03/26 15:20:47;;;;;;;;;;;;;;;12.96;42.89;100855.09;1743485;81;20239;-55
2021/03/26 15:24:15;;;;;;;;;;;;;;;12.73;43.37;100857.77;1699721;84;20212;-55
2021/03/26 15:27:44;;;;;;;;;;;;;;;12.57;43.77;100859.23;1673665;85;20232;-54
2021/03/26 15:30:52;;;;;;;;;;;;;;;12.47;44.21;100863.19;1687321;83;20216;-54
2021/03/26 15:34:14;;;;;;;;;;;;;;;12.45;44.51;100874.86;1687666;84;20247;-55
2021/03/26 15:37:47;;;;;;;;;;;;;;;12.42;44.78;100871.96;1679922;83;20220;-55
2021/03/26 15:41:02;;;;;;;;;;;;;;;12.35;44.94;100870.97;1690831;84;20564;-55
2021/03/26 15:44:29;;;;;;;;;;;;;;;12.16;45.32;100872.72;1721828;82;20267;-55
2021/03/26 15:47:39;;;;;;;;;;;;;;;12.03;45.58;100874.59;1737895;82;20212;-55
2021/03/26 15:50:43;;;;;;;;;;;;;;;11.91;45.80;100878.73;1741195;82;20268;-55
2021/03/26 15:54:14;;;;;;;;;;;;;;;11.83;46.04;100879.24;1733166;82;20234;-55
2021/03/26 15:57:47;;;;;;;;;;;;;;;11.73;46.20;100884.06;1743598;82;20248;-55
2021/03/26 16:01:01;;;;;;;;;;;;;;;11.60;46.44;100890.53;1740375;82;20216;-55
2021/03/26 16:04:20;;;;;;;;;;;;;;;11.46;46.68;100893.95;1741729;82;20219;-55
2021/03/26 16:07:28;;;;;;;;;;;;;;;11.30;46.83;100897.52;1738778;82;20208;-55
2021/03/26 16:10:41;;;;;;;;;;;;;;;11.19;47.10;100903.81;1739234;82;20556;-55
2021/03/26 16:14:05;;;;;;;;;;;;;;;11.09;47.36;100903.09;1738911;82;20231;-56
2021/03/26 16:17:45;;;;;;;;;;;;;;;10.98;47.69;100911.11;1729194;82;20218;-56
2021/03/26 16:21:18;;;;;;;;;;;;;;;10.86;47.96;100908.31;1738671;82;20199;-55
2021/03/26 16:24:51;;;;;;;;;;;;;;;10.76;48.31;100908.10;1709981;83;20194;-55
2021/03/26 16:28:25;;;;;;;;;;;;;;;10.69;48.59;100913.91;1709973;83;20487;-57
2021/03/26 16:31:44;;;;;;;;;;;;;;;10.61;48.87;100917.97;1710141;84;20218;-56
2021/03/26 16:35:11;;;;;;;;;;;;;;;10.52;49.07;100918.42;1710213;83;20233;-56
2021/03/26 16:38:20;;;;;;;;;;;;;;;10.40;49.25;100923.30;1710304;83;20237;-57
2021/03/26 16:42:02;;;;;;;;;;;;;;;10.29;49.51;100924.94;1733670;82;20296;-56
2021/03/26 16:45:28;;;;;;;;;;;;;;;10.20;49.96;100930.02;1708440;84;20198;-57
2021/03/26 16:48:56;;;;;;;;;;;;;;;10.08;50.43;100943.62;1731690;82;20211;-56
2021/03/26 16:52:25;;;;;;;;;;;;;;;9.97;50.85;100941.07;1739552;82;20216;-56
2021/03/26 16:55:45;;;;;;;;;;;;;;;9.87;51.22;100947.66;1738738;82;20215;-56